Terminal Aerodrome Forecast
Issued by NWS Sioux Falls, SD

Home | Current Version | Previous Version | Graphics & Text | Print | Product List | Glossary On
Versions: 1 2 3 4 5 6 7 8 9 10 11 12 13 14 15 16
000
FTUS43 KFSD 280039 AAA
TAFFSD
TAF AMD
KFSD 280039Z 2801/2824 16009KT P6SM OVC060
      TEMPO 2801/2802 5SM -SN OVC025
     FM280400 12007KT P6SM OVC030
     FM281600 16014KT P6SM SCT030
     FM281900 16018G26KT P6SM SCT200=

USA.gov is the U.S. government's official web portal to all federal, state and local government web resources and services.